Time,TemperatureF,DewpointF,PressureIn,WindDirection,WindDirectionDegrees,WindSpeedMPH,WindSpeedGustMPH,Humidity,HourlyPrecipIn,Conditions,Clouds,dailyrainin,SoftwareType,DateUTC
2013-03-02 00:02:00,25.0,20.0,-100.00,NNW,340,4.0,9.0,81,0.00,,,-99.99,,2013-03-02 05:02:00,
2013-03-02 00:12:00,25.0,20.0,-100.00,North,0,2.0,6.0,80,0.00,,,-99.99,,2013-03-02 05:12:00,
2013-03-02 00:22:00,25.0,20.0,-100.00,NNW,330,4.0,7.0,79,0.00,,,-99.99,,2013-03-02 05:22:00,
2013-03-02 00:32:00,25.0,20.0,-100.00,NNW,330,5.0,8.0,80,0.00,,,-99.99,,2013-03-02 05:32:00,
2013-03-02 00:42:00,25.0,20.0,-100.00,North,0,4.0,7.0,80,0.00,,,-99.99,,2013-03-02 05:42:00,
2013-03-02 00:52:00,25.0,20.0,-100.00,NNW,330,6.0,9.0,80,0.00,,,-99.99,,2013-03-02 05:52:00,
2013-03-02 01:02:00,25.0,20.0,-100.00,NW,310,7.0,9.0,81,0.00,,,-99.99,,2013-03-02 06:02:00,
2013-03-02 01:11:00,25.0,20.0,-100.00,NW,325,7.0,11.0,81,0.00,,,-99.99,,2013-03-02 06:11:00,
2013-03-02 01:21:00,25.0,20.0,-100.00,NW,325,6.0,11.0,81,0.00,,,-99.99,,2013-03-02 06:21:00,
2013-03-02 01:32:00,25.0,20.0,-100.00,NW,315,6.0,10.0,82,0.00,,,-99.99,,2013-03-02 06:32:00,
2013-03-02 01:42:00,24.0,20.0,-100.00,NW,315,7.0,11.0,83,0.00,,,-99.99,,2013-03-02 06:42:00,
2013-03-02 01:52:00,24.0,20.0,-100.00,NW,310,6.0,10.0,83,0.00,,,-99.99,,2013-03-02 06:52:00,
2013-03-02 02:01:00,24.0,20.0,-100.00,NW,320,7.0,9.0,84,0.00,,,-99.99,,2013-03-02 07:01:00,
2013-03-02 02:11:00,24.0,20.0,-100.00,NW,320,4.0,9.0,84,0.00,,,-99.99,,2013-03-02 07:11:00,
2013-03-02 02:21:00,24.0,20.0,-100.00,NW,305,7.0,9.0,84,0.00,,,-99.99,,2013-03-02 07:21:00,
2013-03-02 02:32:00,25.0,21.0,-100.00,NW,310,4.0,8.0,84,0.00,,,-99.99,,2013-03-02 07:32:00,
2013-03-02 02:42:00,25.0,21.0,-100.00,NW,315,4.0,7.0,85,0.00,,,-99.99,,2013-03-02 07:42:00,
2013-03-02 02:51:00,25.0,21.0,-100.00,WNW,300,2.0,6.0,85,0.00,,,-99.99,,2013-03-02 07:51:00,
2013-03-02 03:01:00,24.0,21.0,-100.00,WNW,285,4.0,9.0,86,0.00,,,-99.99,,2013-03-02 08:01:00,
2013-03-02 03:11:00,24.0,21.0,-100.00,West,275,4.0,6.0,87,0.00,,,-99.99,,2013-03-02 08:11:00,
2013-03-02 03:22:00,24.0,21.0,-100.00,WNW,285,3.0,6.0,87,0.00,,,-99.99,,2013-03-02 08:22:00,
2013-03-02 03:32:00,24.0,21.0,-100.00,WNW,290,4.0,7.0,88,0.00,,,-99.99,,2013-03-02 08:32:00,
2013-03-02 03:42:00,24.0,21.0,-100.00,WNW,300,4.0,7.0,88,0.00,,,-99.99,,2013-03-02 08:42:00,
2013-03-02 03:52:00,24.0,21.0,-100.00,NW,305,5.0,10.0,88,0.55,,,-99.99,,2013-03-02 08:52:00,
2013-03-02 04:02:00,24.0,21.0,-100.00,NNW,335,6.0,9.0,88,0.55,,,-99.99,,2013-03-02 09:02:00,
2013-03-02 04:11:00,24.0,20.0,-100.00,NW,325,5.0,12.0,86,0.55,,,-99.99,,2013-03-02 09:11:00,
2013-03-02 04:22:00,24.0,20.0,-100.00,NW,320,3.0,6.0,85,0.00,,,-99.99,,2013-03-02 09:22:00,
2013-03-02 04:32:00,24.0,20.0,-100.00,NW,315,5.0,7.0,85,0.00,,,-99.99,,2013-03-02 09:32:00,
2013-03-02 04:42:00,24.0,20.0,-100.00,NW,320,6.0,10.0,84,0.00,,,-99.99,,2013-03-02 09:42:00,
2013-03-02 04:51:00,24.0,20.0,-100.00,NW,325,4.0,9.0,84,0.00,,,-99.99,,2013-03-02 09:51:00,
2013-03-02 05:01:00,24.0,20.0,-100.00,NNW,340,4.0,7.0,84,0.00,,,-99.99,,2013-03-02 10:01:00,
2013-03-02 05:16:00,24.0,20.0,-100.00,NW,325,5.0,10.0,84,0.55,,,-99.99,,2013-03-02 10:16:00,
2013-03-02 05:22:00,24.0,20.0,-100.00,NW,320,5.0,11.0,84,0.00,,,-99.99,,2013-03-02 10:22:00,
2013-03-02 05:32:00,24.0,20.0,-100.00,WNW,300,2.0,7.0,85,0.00,,,-99.99,,2013-03-02 10:32:00,
2013-03-02 05:42:00,23.0,20.0,-100.00,NW,320,7.0,10.0,85,0.00,,,-99.99,,2013-03-02 10:42:00,
2013-03-02 05:52:00,23.0,19.0,-100.00,North,350,6.0,12.0,83,0.00,,,-99.99,,2013-03-02 10:52:00,
2013-03-02 06:01:00,23.0,19.0,-100.00,NNW,335,6.0,7.0,83,0.00,,,-99.99,,2013-03-02 11:01:00,
2013-03-02 06:11:00,23.0,19.0,-100.00,NW,325,5.0,8.0,83,0.00,,,-99.99,,2013-03-02 11:11:00,
2013-03-02 06:21:00,23.0,18.0,-100.00,NNW,335,7.0,12.0,82,0.00,,,-99.99,,2013-03-02 11:21:00,
2013-03-02 06:32:00,23.0,19.0,-100.00,NNW,345,6.0,11.0,82,0.00,,,-99.99,,2013-03-02 11:32:00,
2013-03-02 06:42:00,23.0,18.0,-100.00,NNW,335,7.0,11.0,81,0.00,,,-99.99,,2013-03-02 11:42:00,
2013-03-02 06:52:00,23.0,18.0,-100.00,NNW,340,8.0,11.0,81,0.00,,,-99.99,,2013-03-02 11:52:00,
2013-03-02 07:02:00,23.0,18.0,-100.00,North,350,7.0,13.0,80,0.55,,,-99.99,,2013-03-02 12:02:00,
2013-03-02 07:11:00,23.0,18.0,-100.00,North,0,7.0,10.0,80,1.10,,,-99.99,,2013-03-02 12:11:00,
2013-03-02 07:21:00,23.0,18.0,-100.00,North,350,4.0,9.0,80,0.00,,,-99.99,,2013-03-02 12:21:00,
2013-03-02 07:33:00,23.0,18.0,-100.00,North,5,4.0,9.0,80,0.00,,,-99.99,,2013-03-02 12:33:00,
2013-03-02 07:43:00,23.0,18.0,-100.00,North,0,4.0,8.0,80,0.00,,,-99.99,,2013-03-02 12:43:00,
2013-03-02 07:53:00,23.0,18.0,-100.00,North,0,4.0,7.0,81,0.00,,,-99.99,,2013-03-02 12:53:00,
2013-03-02 08:01:00,23.0,18.0,-100.00,North,355,4.0,8.0,81,0.00,,,-99.99,,2013-03-02 13:01:00,
2013-03-02 08:11:00,23.0,18.0,-100.00,NNW,340,4.0,10.0,81,0.00,,,-99.99,,2013-03-02 13:11:00,
2013-03-02 08:22:00,23.0,18.0,-100.00,NNW,335,4.0,7.0,81,0.00,,,-99.99,,2013-03-02 13:22:00,
2013-03-02 08:32:00,23.0,18.0,-100.00,NW,325,6.0,7.0,80,0.00,,,-99.99,,2013-03-02 13:32:00,
2013-03-02 08:42:00,23.0,18.0,-100.00,NW,325,6.0,7.0,80,0.00,,,-99.99,,2013-03-02 13:42:00,
2013-03-02 08:52:00,23.0,18.0,-100.00,North,355,6.0,10.0,79,0.00,,,-99.99,,2013-03-02 13:52:00,
2013-03-02 09:01:00,24.0,19.0,-100.00,North,350,4.0,9.0,79,0.00,,,-99.99,,2013-03-02 14:01:00,
2013-03-02 09:11:00,24.0,19.0,-100.00,NNW,330,7.0,9.0,80,0.00,,,-99.99,,2013-03-02 14:11:00,
2013-03-02 09:21:00,24.0,19.0,-100.00,NW,325,6.0,9.0,79,0.00,,,-99.99,,2013-03-02 14:21:00,
2013-03-02 09:32:00,24.0,18.0,-100.00,NNW,330,7.0,10.0,78,0.00,,,-99.99,,2013-03-02 14:32:00,
2013-03-02 09:42:00,25.0,19.0,-100.00,North,0,6.0,9.0,78,0.00,,,-99.99,,2013-03-02 14:42:00,
2013-03-02 09:52:00,24.0,19.0,-100.00,NNW,345,6.0,13.0,79,0.00,,,-99.99,,2013-03-02 14:52:00,
2013-03-02 10:02:00,24.0,18.0,-100.00,NNW,330,9.0,12.0,77,0.00,,,-99.99,,2013-03-02 15:02:00,
2013-03-02 10:11:00,25.0,18.0,-100.00,North,355,7.0,16.0,75,0.00,,,-99.99,,2013-03-02 15:11:00,
2013-03-02 10:21:00,25.0,18.0,-100.00,North,5,7.0,11.0,75,0.00,,,-99.99,,2013-03-02 15:21:00,
2013-03-02 10:32:00,25.0,18.0,-100.00,NW,315,9.0,15.0,75,0.00,,,-99.99,,2013-03-02 15:32:00,
2013-03-02 10:42:00,25.0,19.0,-100.00,NNW,330,9.0,13.0,78,0.00,,,-99.99,,2013-03-02 15:42:00,
2013-03-02 10:52:00,24.0,19.0,-100.00,NNW,335,9.0,15.0,80,0.00,,,-99.99,,2013-03-02 15:52:00,
2013-03-02 11:02:00,24.0,20.0,-100.00,NW,325,8.0,11.0,81,0.00,,,-99.99,,2013-03-02 16:02:00,
2013-03-02 11:11:00,25.0,18.0,-100.00,NW,315,12.0,22.0,75,0.00,,,-99.99,,2013-03-02 16:11:00,
2013-03-02 11:21:00,26.0,17.0,-100.00,NW,310,11.0,19.0,70,0.00,,,-99.99,,2013-03-02 16:21:00,
2013-03-02 11:32:00,26.0,15.0,-100.00,North,0,11.0,21.0,64,0.00,,,-99.99,,2013-03-02 16:32:00,
2013-03-02 11:42:00,26.0,16.0,-100.00,North,0,11.0,16.0,65,0.00,,,-99.99,,2013-03-02 16:42:00,
2013-03-02 11:52:00,26.0,15.0,-100.00,North,355,10.0,16.0,61,0.00,,,-99.99,,2013-03-02 16:52:00,
2013-03-02 12:01:00,27.0,17.0,-100.00,NW,320,9.0,16.0,67,0.00,,,-99.99,,2013-03-02 17:01:00,
2013-03-02 12:11:00,26.0,16.0,-100.00,NW,325,12.0,21.0,64,0.00,,,-99.99,,2013-03-02 17:11:00,
2013-03-02 12:21:00,26.0,16.0,-100.00,NW,325,9.0,17.0,65,0.00,,,-99.99,,2013-03-02 17:21:00,
2013-03-02 12:32:00,26.0,16.0,-100.00,NW,325,9.0,15.0,65,0.00,,,-99.99,,2013-03-02 17:32:00,
2013-03-02 12:42:00,26.0,16.0,-100.00,NW,325,11.0,14.0,65,0.00,,,-99.99,,2013-03-02 17:42:00,
2013-03-02 12:52:00,26.0,17.0,-100.00,North,5,12.0,16.0,66,0.00,,,-99.99,,2013-03-02 17:52:00,
2013-03-02 13:02:00,27.0,16.0,-100.00,North,0,7.0,13.0,63,0.00,,,-99.99,,2013-03-02 18:02:00,
2013-03-02 13:11:00,27.0,19.0,-100.00,NW,325,7.0,16.0,69,0.00,,,-99.99,,2013-03-02 18:11:00,
2013-03-02 13:22:00,27.0,17.0,-100.00,NW,315,10.0,16.0,67,0.00,,,-99.99,,2013-03-02 18:22:00,
2013-03-02 13:32:00,27.0,18.0,-100.00,NW,320,9.0,17.0,67,0.00,,,-99.99,,2013-03-02 18:32:00,
2013-03-02 13:42:00,27.0,19.0,-100.00,NW,320,9.0,17.0,71,0.00,,,-99.99,,2013-03-02 18:42:00,
2013-03-02 13:52:00,27.0,18.0,-100.00,NNW,330,11.0,16.0,68,0.00,,,-99.99,,2013-03-02 18:52:00,
2013-03-02 14:01:00,27.0,19.0,-100.00,North,350,9.0,15.0,70,0.00,,,-99.99,,2013-03-02 19:01:00,
2013-03-02 14:11:00,27.0,19.0,-100.00,NNW,345,11.0,14.0,69,0.00,,,-99.99,,2013-03-02 19:11:00,
2013-03-02 14:22:00,27.0,19.0,-100.00,NNW,340,7.0,17.0,69,0.00,,,-99.99,,2013-03-02 19:22:00,
2013-03-02 14:32:00,27.0,19.0,-100.00,NNW,330,9.0,16.0,71,0.00,,,-99.99,,2013-03-02 19:32:00,
2013-03-02 14:42:00,27.0,20.0,-100.00,NW,305,9.0,16.0,74,0.00,,,-99.99,,2013-03-02 19:42:00,
2013-03-02 14:52:00,27.0,21.0,-100.00,NW,310,12.0,16.0,77,0.00,,,-99.99,,2013-03-02 19:52:00,
2013-03-02 15:01:00,27.0,20.0,-100.00,NW,315,9.0,16.0,76,0.00,,,-99.99,,2013-03-02 20:01:00,
2013-03-02 15:11:00,27.0,22.0,-100.00,NW,320,6.0,12.0,81,0.00,,,-99.99,,2013-03-02 20:11:00,
2013-03-02 15:22:00,27.0,21.0,-100.00,WNW,290,6.0,11.0,79,0.00,,,-99.99,,2013-03-02 20:22:00,
2013-03-02 15:32:00,27.0,19.0,-100.00,North,0,7.0,15.0,73,0.00,,,-99.99,,2013-03-02 20:32:00,
2013-03-02 15:42:00,27.0,19.0,-100.00,NW,320,7.0,13.0,72,0.00,,,-99.99,,2013-03-02 20:42:00,
2013-03-02 15:52:00,27.0,19.0,-100.00,NW,315,9.0,15.0,72,0.00,,,-99.99,,2013-03-02 20:52:00,
2013-03-02 16:02:00,27.0,18.0,-100.00,NW,315,11.0,16.0,70,0.00,,,-99.99,,2013-03-02 21:02:00,
2013-03-02 16:11:00,27.0,19.0,-100.00,NNW,330,6.0,12.0,72,0.00,,,-99.99,,2013-03-02 21:11:00,
2013-03-02 16:22:00,27.0,19.0,-100.00,NW,325,6.0,14.0,72,0.00,,,-99.99,,2013-03-02 21:22:00,
2013-03-02 16:32:00,26.0,19.0,-100.00,North,0,10.0,14.0,74,0.00,,,-99.99,,2013-03-02 21:32:00,
2013-03-02 16:42:00,26.0,19.0,-100.00,North,0,8.0,15.0,73,0.00,,,-99.99,,2013-03-02 21:42:00,
2013-03-02 16:52:00,26.0,19.0,-100.00,North,350,7.0,13.0,75,0.00,,,-99.99,,2013-03-02 21:52:00,
2013-03-02 17:02:00,26.0,20.0,-100.00,NW,325,8.0,12.0,76,0.00,,,-99.99,,2013-03-02 22:02:00,
2013-03-02 17:11:00,26.0,20.0,-100.00,NNW,335,6.0,11.0,77,0.00,,,-99.99,,2013-03-02 22:11:00,
2013-03-02 17:22:00,26.0,20.0,-100.00,NW,315,9.0,13.0,77,0.00,,,-99.99,,2013-03-02 22:22:00,
2013-03-02 17:32:00,26.0,20.0,-100.00,NNW,340,4.0,11.0,77,0.00,,,-99.99,,2013-03-02 22:32:00,
2013-03-02 17:42:00,26.0,20.0,-100.00,NW,310,8.0,11.0,77,0.00,,,-99.99,,2013-03-02 22:42:00,
2013-03-02 17:52:00,26.0,20.0,-100.00,NNW,335,6.0,12.0,76,0.00,,,-99.99,,2013-03-02 22:52:00,
2013-03-02 18:01:00,26.0,19.0,-100.00,NW,325,7.0,10.0,75,0.00,,,-99.99,,2013-03-02 23:01:00,
2013-03-02 18:11:00,26.0,20.0,-100.00,NW,305,6.0,11.0,77,0.00,,,-99.99,,2013-03-02 23:11:00,
2013-03-02 18:21:00,26.0,20.0,-100.00,NW,320,7.0,12.0,76,0.00,,,-99.99,,2013-03-02 23:21:00,
2013-03-02 18:32:00,26.0,19.0,-100.00,NW,315,8.0,11.0,75,0.00,,,-99.99,,2013-03-02 23:32:00,
2013-03-02 18:42:00,26.0,19.0,-100.00,NW,320,7.0,11.0,75,0.00,,,-99.99,,2013-03-02 23:42:00,
2013-03-02 18:52:00,26.0,19.0,-100.00,NW,315,9.0,16.0,74,0.00,,,-99.99,,2013-03-02 23:52:00,
2013-03-02 19:02:00,26.0,19.0,-100.00,NNW,340,9.0,12.0,74,0.00,,,-99.99,,2013-03-03 00:02:00,
2013-03-02 19:11:00,26.0,19.0,-100.00,NW,325,7.0,13.0,73,0.00,,,-99.99,,2013-03-03 00:11:00,
2013-03-02 19:22:00,26.0,19.0,-100.00,NNW,330,9.0,14.0,75,0.00,,,-99.99,,2013-03-03 00:22:00,
2013-03-02 19:32:00,26.0,19.0,-100.00,NW,325,6.0,12.0,75,0.00,,,-99.99,,2013-03-03 00:32:00,
2013-03-02 19:42:00,26.0,19.0,-100.00,North,0,6.0,9.0,75,0.00,,,-99.99,,2013-03-03 00:42:00,
2013-03-02 19:52:00,26.0,19.0,-100.00,NNW,345,4.0,10.0,76,0.00,,,-99.99,,2013-03-03 00:52:00,
2013-03-02 20:01:00,26.0,20.0,-100.00,NW,325,6.0,9.0,77,0.00,,,-99.99,,2013-03-03 01:01:00,
2013-03-02 20:11:00,26.0,20.0,-100.00,NW,305,4.0,12.0,78,0.00,,,-99.99,,2013-03-03 01:11:00,
2013-03-02 20:21:00,26.0,20.0,-100.00,NNW,330,6.0,12.0,79,0.00,,,-99.99,,2013-03-03 01:21:00,
2013-03-02 20:32:00,26.0,20.0,-100.00,WNW,300,6.0,9.0,80,0.00,,,-99.99,,2013-03-03 01:32:00,
2013-03-02 20:42:00,25.0,21.0,-100.00,NW,315,6.0,11.0,82,0.55,,,-99.99,,2013-03-03 01:42:00,
2013-03-02 20:52:00,25.0,21.0,-100.00,NW,310,6.0,12.0,82,0.00,,,-99.99,,2013-03-03 01:52:00,
2013-03-02 21:01:00,25.0,20.0,-100.00,NW,310,7.0,10.0,81,0.00,,,-99.99,,2013-03-03 02:01:00,
2013-03-02 21:11:00,25.0,21.0,-100.00,WNW,300,4.0,11.0,81,0.00,,,-99.99,,2013-03-03 02:11:00,
2013-03-02 21:21:00,25.0,21.0,-100.00,NW,305,7.0,11.0,81,0.00,,,-99.99,,2013-03-03 02:21:00,
2013-03-02 21:32:00,25.0,21.0,-100.00,NW,305,4.0,8.0,81,0.00,,,-99.99,,2013-03-03 02:32:00,
2013-03-02 21:42:00,25.0,21.0,-100.00,NW,320,7.0,11.0,81,0.00,,,-99.99,,2013-03-03 02:42:00,
2013-03-02 21:52:00,25.0,21.0,-100.00,NW,310,9.0,12.0,82,0.55,,,-99.99,,2013-03-03 02:52:00,
2013-03-02 22:01:00,25.0,21.0,-100.00,NW,320,6.0,10.0,83,0.55,,,-99.99,,2013-03-03 03:01:00,
2013-03-02 22:11:00,25.0,21.0,-100.00,NW,310,6.0,10.0,85,0.55,,,-99.99,,2013-03-03 03:11:00,
2013-03-02 22:21:00,25.0,21.0,-100.00,NW,310,7.0,11.0,86,0.00,,,-99.99,,2013-03-03 03:21:00,
2013-03-02 22:32:00,25.0,22.0,-100.00,NW,305,4.0,11.0,86,0.55,,,-99.99,,2013-03-03 03:32:00,
2013-03-02 22:42:00,25.0,21.0,-100.00,NW,305,6.0,9.0,87,0.55,,,-99.99,,2013-03-03 03:42:00,
2013-03-02 22:52:00,25.0,21.0,-100.00,NW,310,6.0,9.0,87,0.55,,,-99.99,,2013-03-03 03:52:00,
2013-03-02 23:01:00,25.0,22.0,-100.00,NW,310,7.0,9.0,87,0.00,,,-99.99,,2013-03-03 04:01:00,
2013-03-02 23:11:00,25.0,22.0,-100.00,NW,305,6.0,10.0,88,0.00,,,-99.99,,2013-03-03 04:11:00,
2013-03-02 23:21:00,24.0,22.0,-100.00,NW,315,6.0,9.0,88,0.00,,,-99.99,,2013-03-03 04:21:00,
2013-03-02 23:32:00,24.0,22.0,-100.00,NW,310,6.0,9.0,88,0.00,,,-99.99,,2013-03-03 04:32:00,
2013-03-02 23:42:00,24.0,22.0,-100.00,NW,310,7.0,9.0,88,0.00,,,-99.99,,2013-03-03 04:42:00,
2013-03-02 23:51:00,24.0,22.0,-100.00,WNW,300,5.0,10.0,88,0.00,,,-99.99,,2013-03-03 04:51:00,